createdAt,value
2023-03-06T00:01:01.847Z,30.88
2023-03-06T00:03:34.741Z,26.15
2023-03-06T00:06:06.554Z,34.75
2023-03-06T00:08:40.290Z,25.25
2023-03-06T00:11:15.875Z,27.20
2023-03-06T00:13:48.968Z,27.33
2023-03-06T00:16:20.311Z,28.67
2023-03-06T00:18:51.678Z,27.98
2023-03-06T00:21:23.113Z,31.48
2023-03-06T00:23:54.507Z,25.95
2023-03-06T00:26:25.759Z,28.15
2023-03-06T00:28:58.636Z,28.15
2023-03-06T00:31:29.701Z,26.27
2023-03-06T00:34:01.126Z,24.38
2023-03-06T00:36:32.318Z,37.58
2023-03-06T00:39:03.422Z,32.05
2023-03-06T00:41:34.469Z,31.05
2023-03-06T00:44:07.456Z,34.75
2023-03-06T00:46:38.914Z,29.70
2023-03-06T00:49:10.146Z,29.08
2023-03-06T00:51:42.235Z,26.52
2023-03-06T00:54:13.812Z,31.02
2023-03-06T00:56:45.144Z,33.40
2023-03-06T00:59:17.926Z,31.33
2023-03-06T01:01:48.994Z,27.73
2023-03-06T01:04:20.292Z,28.27
2023-03-06T01:06:51.917Z,33.30
2023-03-06T01:09:23.149Z,30.88
2023-03-06T01:11:54.476Z,26.75
2023-03-06T01:14:27.503Z,30.25
2023-03-06T01:16:58.767Z,22.58
2023-03-06T01:19:30.086Z,24.88
2023-03-06T01:22:04.721Z,31.45
2023-03-06T01:24:36.298Z,29.85
2023-03-06T01:27:07.713Z,28.38
2023-03-06T01:29:40.589Z,28.50
2023-03-06T01:32:12.003Z,24.65
2023-03-06T01:34:43.180Z,29.95
2023-03-06T01:37:14.351Z,27.48
2023-03-06T01:39:45.298Z,24.70
2023-03-06T01:42:16.980Z,27.45
2023-03-06T01:45:09.030Z,21.73
2023-03-06T01:47:40.413Z,34.53
2023-03-06T01:50:13.955Z,29.02
2023-03-06T01:52:50.260Z,22.20
2023-03-06T01:55:23.829Z,22.52
2023-03-06T01:57:58.768Z,29.17
2023-03-06T02:00:33.247Z,29.23
2023-03-06T02:03:09.735Z,30.10
2023-03-06T02:05:42.781Z,26.55
2023-03-06T02:08:17.065Z,32.05
2023-03-06T02:11:00.282Z,29.33
2023-03-06T02:13:32.375Z,22.75
2023-03-06T02:16:05.909Z,28.88
2023-03-06T02:18:37.804Z,28.60
2023-03-06T02:21:12.294Z,31.27
2023-03-06T02:23:52.203Z,28.00
2023-03-06T02:26:25.602Z,27.75
2023-03-06T02:28:58.468Z,26.48
2023-03-06T02:31:31.374Z,32.45
2023-03-06T02:34:11.004Z,25.77
2023-03-06T02:36:47.446Z,34.67
2023-03-06T02:39:21.877Z,32.35
2023-03-06T02:41:55.008Z,34.13
2023-03-06T02:44:27.731Z,26.77
2023-03-06T02:46:58.799Z,35.45
2023-03-06T02:49:29.991Z,25.20
2023-03-06T02:52:01.503Z,33.63
2023-03-06T02:54:32.859Z,32.80
2023-03-06T02:57:05.819Z,38.65
2023-03-06T02:59:37.077Z,27.70
2023-03-06T03:02:08.332Z,28.98
2023-03-06T03:04:39.954Z,33.38
2023-03-06T03:07:11.325Z,34.40
2023-03-06T03:09:42.518Z,33.22
2023-03-06T03:12:15.843Z,34.55
2023-03-06T03:14:47.580Z,37.70
2023-03-06T03:17:18.808Z,30.67
2023-03-06T03:19:50.084Z,32.13
2023-03-06T03:22:21.596Z,40.60
2023-03-06T03:24:52.909Z,36.42
2023-03-06T03:27:26.121Z,38.33
2023-03-06T03:29:59.684Z,39.88
2023-03-06T03:32:31.083Z,36.50
2023-03-06T03:35:03.459Z,33.17
2023-03-06T03:37:35.849Z,35.95
2023-03-06T03:40:07.776Z,32.58
2023-03-06T03:42:41.223Z,38.72
2023-03-06T03:45:13.316Z,35.92
2023-03-06T03:47:44.676Z,38.47
2023-03-06T03:50:15.990Z,31.15
2023-03-06T03:52:47.295Z,48.33
2023-03-06T03:55:18.642Z,35.63
2023-03-06T03:57:51.581Z,38.92
2023-03-06T04:00:23.725Z,34.45
2023-03-06T04:02:54.961Z,37.20
2023-03-06T04:05:26.446Z,33.70
2023-03-06T04:07:57.527Z,42.72
2023-03-06T04:10:29.007Z,42.50
2023-03-06T04:13:02.108Z,44.80
2023-03-06T04:15:33.517Z,36.72
2023-03-06T04:18:04.802Z,42.67
2023-03-06T04:20:36.236Z,43.10
2023-03-06T04:23:07.464Z,35.63
2023-03-06T04:25:38.615Z,41.65
2023-03-06T04:28:12.009Z,39.05
2023-03-06T04:30:43.317Z,37.63
2023-03-06T04:33:14.533Z,41.42
2023-03-06T04:35:45.823Z,35.90
2023-03-06T04:38:17.132Z,38.28
2023-03-06T04:40:48.303Z,43.80
2023-03-06T04:43:21.561Z,39.50
2023-03-06T04:45:53.008Z,33.78
2023-03-06T04:48:26.108Z,39.55
2023-03-06T04:50:57.359Z,40.08
2023-03-06T04:53:28.267Z,41.17
2023-03-06T04:55:59.610Z,41.67
2023-03-06T04:58:32.356Z,34.13
2023-03-06T05:01:03.832Z,38.60
2023-03-06T05:03:35.445Z,46.75
2023-03-06T05:06:06.831Z,40.50
2023-03-06T05:08:38.659Z,41.33
2023-03-06T05:11:10.101Z,40.40
2023-03-06T05:13:43.932Z,38.50
2023-03-06T05:16:15.291Z,38.75
2023-03-06T05:18:48.363Z,48.60
2023-03-06T05:21:20.561Z,36.95
2023-03-06T05:23:52.058Z,41.85
2023-03-06T05:26:24.330Z,35.53
2023-03-06T05:28:57.237Z,39.65
2023-03-06T05:31:28.705Z,41.85
2023-03-06T05:34:01.792Z,47.92
2023-03-06T05:36:33.815Z,42.50
2023-03-06T05:39:05.265Z,40.45
2023-03-06T05:41:39.483Z,46.60
2023-03-06T05:44:12.410Z,42.00
2023-03-06T05:46:43.532Z,46.95
2023-03-06T05:49:14.884Z,46.35
2023-03-06T05:51:46.067Z,46.17
2023-03-06T05:54:17.405Z,39.83
2023-03-06T05:56:48.598Z,47.70
2023-03-06T05:59:21.485Z,41.53
2023-03-06T06:01:52.619Z,44.38
2023-03-06T06:04:24.029Z,45.80
2023-03-06T06:06:56.912Z,47.00
2023-03-06T06:09:28.816Z,48.65
2023-03-06T06:12:02.128Z,48.47
2023-03-06T06:14:37.353Z,42.83
2023-03-06T06:17:08.516Z,49.58
2023-03-06T06:19:39.846Z,49.55
2023-03-06T06:22:10.559Z,45.90
2023-03-06T06:24:41.247Z,44.95
2023-03-06T06:27:12.439Z,42.20
2023-03-06T06:29:44.618Z,41.97
2023-03-06T06:32:22.649Z,42.78
2023-03-06T06:34:54.012Z,43.55
2023-03-06T06:37:26.183Z,39.08
2023-03-06T06:39:57.566Z,44.97
2023-03-06T06:42:36.979Z,44.20
2023-03-06T06:45:14.133Z,49.65
2023-03-06T06:47:45.603Z,49.03
2023-03-06T06:50:17.493Z,39.60
2023-03-06T06:52:51.775Z,49.13
2023-03-06T06:55:23.165Z,39.97
2023-03-06T06:57:54.095Z,38.35
2023-03-06T07:00:39.216Z,44.58
2023-03-06T07:03:10.483Z,42.00
2023-03-06T07:05:41.032Z,41.63
2023-03-06T07:08:11.972Z,43.72
2023-03-06T07:10:42.593Z,43.05
2023-03-06T07:13:13.574Z,44.67
2023-03-06T07:15:46.083Z,42.38
2023-03-06T07:18:16.606Z,41.50
2023-03-06T07:20:47.057Z,44.38
2023-03-06T07:23:18.049Z,39.67
2023-03-06T07:25:48.867Z,40.47
2023-03-06T07:28:19.725Z,45.63
2023-03-06T07:30:52.060Z,42.17
2023-03-06T07:33:22.474Z,47.17
2023-03-06T07:35:52.905Z,43.35
2023-03-06T07:38:23.432Z,43.15
2023-03-06T07:40:54.868Z,42.40
2023-03-06T07:43:25.417Z,51.33
2023-03-06T07:46:03.619Z,46.40
2023-03-06T07:48:34.036Z,39.70
2023-03-06T07:51:06.211Z,42.47
2023-03-06T07:53:36.836Z,40.45
2023-03-06T07:56:09.852Z,44.17
2023-03-06T07:58:40.785Z,51.55
2023-03-06T08:01:14.797Z,45.38
2023-03-06T08:03:52.442Z,47.88
2023-03-06T08:06:25.593Z,44.38
2023-03-06T08:09:06.451Z,37.65
2023-03-06T08:11:36.998Z,44.40
2023-03-06T08:14:09.657Z,40.50
2023-03-06T08:16:52.764Z,40.13
2023-03-06T08:19:23.382Z,40.35
2023-03-06T08:22:03.067Z,42.17
2023-03-06T08:24:33.640Z,39.88
2023-03-06T08:27:47.672Z,51.75
2023-03-06T08:30:18.684Z,40.35
2023-03-06T08:32:50.800Z,42.75
2023-03-06T08:35:29.751Z,43.33
2023-03-06T08:38:00.384Z,45.80
2023-03-06T08:40:37.541Z,39.15
2023-03-06T08:43:28.711Z,41.63
2023-03-06T08:46:02.981Z,42.30
2023-03-06T08:48:35.250Z,42.85
2023-03-06T08:51:06.005Z,44.63
2023-03-06T08:53:43.129Z,42.42
2023-03-06T08:56:23.557Z,40.38
2023-03-06T08:58:55.527Z,43.42
2023-03-06T09:01:30.053Z,44.97
2023-03-06T09:04:03.841Z,39.67
2023-03-06T09:06:36.316Z,41.40
2023-03-06T09:09:13.772Z,38.17
2023-03-06T09:11:47.215Z,39.60
2023-03-06T09:14:18.724Z,41.35
2023-03-06T09:16:49.297Z,35.83
2023-03-06T09:19:21.546Z,43.47
2023-03-06T09:21:52.651Z,38.08
2023-03-06T09:24:23.291Z,42.40
2023-03-06T09:26:53.905Z,50.92
2023-03-06T09:29:24.508Z,43.22
2023-03-06T09:31:55.082Z,46.85
2023-03-06T09:34:28.508Z,41.38
2023-03-06T09:36:58.950Z,42.80
2023-03-06T09:39:29.858Z,42.45
2023-03-06T09:42:00.858Z,43.17
2023-03-06T09:44:33.782Z,44.00
2023-03-06T09:47:29.500Z,50.13
2023-03-06T09:50:17.658Z,42.83
2023-03-06T09:53:00.648Z,45.10
2023-03-06T09:55:36.894Z,39.45
2023-03-06T09:58:14.228Z,44.35
2023-03-06T10:00:54.523Z,47.80
2023-03-06T10:03:30.290Z,52.47
2023-03-06T10:06:07.851Z,53.40
2023-03-06T10:08:49.583Z,50.08
2023-03-06T10:11:27.878Z,52.38
2023-03-06T10:14:14.955Z,52.97
2023-03-06T10:16:46.669Z,52.88
2023-03-06T10:19:19.821Z,54.85
2023-03-06T10:21:59.143Z,52.58
2023-03-06T10:24:48.909Z,51.42
2023-03-06T10:27:30.430Z,47.15
2023-03-06T10:30:20.913Z,51.20
2023-03-06T10:32:58.791Z,50.83
2023-03-06T10:35:33.929Z,54.85
2023-03-06T10:38:19.614Z,49.53
2023-03-06T10:41:02.464Z,54.22
2023-03-06T10:43:40.017Z,51.97
2023-03-06T10:46:12.223Z,49.95
2023-03-06T10:48:53.619Z,56.95
2023-03-06T10:51:26.550Z,50.30
2023-03-06T10:54:01.285Z,48.70
2023-03-06T10:56:35.374Z,57.85
2023-03-06T10:59:11.509Z,60.40
2023-03-06T11:01:48.918Z,55.83
2023-03-06T11:04:43.201Z,58.05
2023-03-06T11:07:26.011Z,55.65
2023-03-06T11:10:23.596Z,62.67
2023-03-06T11:13:26.093Z,53.50
2023-03-06T11:16:10.927Z,56.90
2023-03-06T11:18:47.635Z,59.40
2023-03-06T11:21:34.871Z,54.05
2023-03-06T11:24:13.603Z,50.15
2023-03-06T11:27:00.369Z,62.65
2023-03-06T11:29:44.057Z,52.22
2023-03-06T11:32:34.662Z,55.45
2023-03-06T11:35:21.021Z,53.97
2023-03-06T11:38:01.268Z,51.50
2023-03-06T11:40:40.424Z,57.35
2023-03-06T11:43:30.040Z,56.20
2023-03-06T11:46:11.224Z,54.60
2023-03-06T11:48:51.466Z,56.22
2023-03-06T11:51:26.778Z,50.60
2023-03-06T11:54:01.307Z,59.88
2023-03-06T11:56:46.579Z,62.80
2023-03-06T11:59:39.836Z,60.72
2023-03-06T12:02:42.008Z,59.88
2023-03-06T12:05:31.113Z,61.08
2023-03-06T12:08:17.231Z,59.13
2023-03-06T12:10:56.859Z,54.45
2023-03-06T12:13:40.500Z,45.15
2023-03-06T12:16:39.488Z,49.50
2023-03-06T12:19:36.688Z,48.28
2023-03-06T12:22:34.761Z,48.67
2023-03-06T12:25:37.581Z,64.22
2023-03-06T12:28:34.968Z,59.53
2023-03-06T12:31:25.914Z,61.38
2023-03-06T12:34:27.112Z,51.85
2023-03-06T12:37:14.536Z,55.50
2023-03-06T12:40:10.875Z,64.22
2023-03-06T12:43:08.101Z,59.80
2023-03-06T12:45:45.130Z,63.13
2023-03-06T12:48:23.831Z,55.17
2023-03-06T12:51:00.322Z,54.17
2023-03-06T12:53:36.068Z,55.65
2023-03-06T12:56:08.047Z,54.70
2023-03-06T12:59:01.784Z,52.60
2023-03-06T13:02:01.806Z,53.08
2023-03-06T13:05:03.985Z,51.53
2023-03-06T13:07:56.512Z,55.17
2023-03-06T13:10:31.545Z,54.92
2023-03-06T13:13:06.185Z,60.22
2023-03-06T13:15:42.729Z,53.00
2023-03-06T13:18:58.474Z,56.90
2023-03-06T13:22:11.978Z,61.30
2023-03-06T13:24:46.744Z,57.42
2023-03-06T13:28:01.810Z,62.45
2023-03-06T13:30:46.769Z,58.22
2023-03-06T13:33:58.086Z,60.00
2023-03-06T13:36:34.269Z,55.17
2023-03-06T13:39:07.474Z,54.58
2023-03-06T13:42:04.437Z,55.03
2023-03-06T13:44:46.984Z,51.60
2023-03-06T13:50:47.378Z,46.33
2023-03-06T13:54:01.509Z,57.33
2023-03-06T13:57:05.062Z,57.42
2023-03-06T14:04:32.529Z,56.95
2023-03-06T14:07:35.827Z,54.50
2023-03-06T14:10:28.572Z,47.40
2023-03-06T14:13:13.146Z,59.00
2023-03-06T14:15:54.054Z,58.00
2023-03-06T14:18:49.560Z,59.08
2023-03-06T14:21:32.877Z,54.65
2023-03-06T14:24:29.686Z,51.65
2023-03-06T14:30:56.073Z,51.67
2023-03-06T14:33:42.756Z,60.47
2023-03-06T14:36:18.126Z,53.70
2023-03-06T14:38:57.184Z,54.67
2023-03-06T14:41:30.467Z,60.00
2023-03-06T14:44:20.547Z,54.92
2023-03-06T14:46:56.049Z,63.22
2023-03-06T14:49:30.863Z,51.28
2023-03-06T14:52:03.008Z,62.95
2023-03-06T14:54:45.881Z,59.05
2023-03-06T14:57:20.200Z,56.17
2023-03-06T15:00:12.984Z,58.00
2023-03-06T15:03:37.699Z,55.42
2023-03-06T15:06:23.998Z,54.15
2023-03-06T15:09:10.826Z,58.20
2023-03-06T15:12:10.221Z,51.08
2023-03-06T15:15:58.713Z,56.60
2023-03-06T15:18:34.616Z,67.38
2023-03-06T15:21:22.168Z,54.70
2023-03-06T15:23:57.409Z,51.30
2023-03-06T15:26:34.307Z,52.92
2023-03-06T15:29:23.929Z,64.68
2023-03-06T15:32:00.023Z,55.08
2023-03-06T15:34:33.931Z,66.30
2023-03-06T15:37:22.547Z,59.10
2023-03-06T15:40:10.303Z,55.65
2023-03-06T15:42:40.871Z,53.78
2023-03-06T15:45:20.026Z,56.38
2023-03-06T15:47:52.018Z,58.55
2023-03-06T15:50:24.478Z,60.03
2023-03-06T15:52:55.910Z,58.40
2023-03-06T15:55:28.286Z,65.13
2023-03-06T15:58:01.232Z,57.97
2023-03-06T16:00:36.044Z,57.55
2023-03-06T16:03:09.947Z,64.70
2023-03-06T16:05:43.381Z,61.30
2023-03-06T16:08:18.841Z,57.35
2023-03-06T16:10:54.889Z,66.18
2023-03-06T16:13:30.678Z,60.17
2023-03-06T16:16:03.017Z,64.30
2023-03-06T16:18:34.336Z,57.13
2023-03-06T16:21:07.909Z,64.43
2023-03-06T16:23:40.167Z,63.03
2023-03-06T16:26:20.925Z,63.45
2023-03-06T16:28:52.377Z,51.55
2023-03-06T16:31:28.786Z,52.38
2023-03-06T16:33:59.376Z,55.72
2023-03-06T16:36:31.046Z,56.35
2023-03-06T16:39:04.944Z,52.53
2023-03-06T16:41:35.630Z,60.38
2023-03-06T16:44:10.933Z,47.75
2023-03-06T16:46:46.598Z,54.80
2023-03-06T16:49:21.535Z,54.85
2023-03-06T16:51:57.751Z,59.28
2023-03-06T16:54:28.408Z,61.72
2023-03-06T16:56:59.083Z,61.47
2023-03-06T16:59:29.719Z,63.00
2023-03-06T17:02:02.434Z,64.07
2023-03-06T17:15:21.728Z,62.50
2023-03-06T17:18:04.021Z,54.55
2023-03-06T17:20:49.272Z,54.85
2023-03-06T17:23:23.153Z,73.35
2023-03-06T17:25:53.637Z,77.28
2023-03-06T17:28:24.210Z,60.53
2023-03-06T17:30:57.812Z,51.80
2023-03-06T17:33:30.910Z,63.30
2023-03-06T17:36:03.563Z,59.53
2023-03-06T17:38:37.474Z,60.90
2023-03-06T17:41:10.065Z,62.20
2023-03-06T17:43:41.732Z,58.65
2023-03-06T17:46:14.007Z,58.45
2023-03-06T17:48:46.201Z,67.13
2023-03-06T17:51:16.921Z,70.50
2023-03-06T17:53:47.457Z,55.72
2023-03-06T17:56:18.419Z,48.63
2023-03-06T17:58:49.018Z,68.03
2023-03-06T18:01:21.994Z,55.25
2023-03-06T18:03:54.664Z,60.85
2023-03-06T18:06:27.012Z,57.85
2023-03-06T18:08:57.882Z,58.58
2023-03-06T18:11:28.461Z,62.10
2023-03-06T18:13:59.060Z,56.30
2023-03-06T18:16:30.019Z,55.63
2023-03-06T18:19:02.212Z,54.90
2023-03-06T18:21:38.432Z,54.20
2023-03-06T18:24:10.169Z,49.28
2023-03-06T18:26:40.760Z,42.38
2023-03-06T18:29:11.730Z,47.75
2023-03-06T18:31:43.703Z,48.38
2023-03-06T18:34:19.326Z,50.65
2023-03-06T18:36:52.436Z,55.55
2023-03-06T18:39:27.920Z,48.47
2023-03-06T18:41:58.407Z,53.22
2023-03-06T18:44:28.919Z,50.67
2023-03-06T18:46:59.426Z,56.00
2023-03-06T18:49:31.680Z,43.45
2023-03-06T18:52:02.299Z,44.40
2023-03-06T18:54:32.867Z,45.55
2023-03-06T18:57:03.439Z,53.28
2023-03-06T18:59:33.980Z,48.42
2023-03-06T19:02:04.541Z,47.83
2023-03-06T19:04:38.788Z,44.50
2023-03-06T19:07:11.949Z,47.15
2023-03-06T19:09:44.834Z,45.15
2023-03-06T19:12:15.338Z,44.50
2023-03-06T19:14:48.371Z,47.03
2023-03-06T19:17:21.066Z,44.95
2023-03-06T19:19:55.901Z,51.83
2023-03-06T19:22:27.183Z,43.85
2023-03-06T19:24:57.705Z,46.70
2023-03-06T19:27:28.681Z,42.83
2023-03-06T19:30:01.905Z,42.67
2023-03-06T19:32:35.784Z,48.90
2023-03-06T19:35:08.595Z,46.15
2023-03-06T19:37:40.624Z,52.88
2023-03-06T19:40:15.246Z,49.22
2023-03-06T19:42:46.532Z,52.72
2023-03-06T19:45:16.902Z,61.38
2023-03-06T19:47:47.993Z,61.40
2023-03-06T19:50:23.036Z,54.20
2023-03-06T19:52:54.631Z,57.55
2023-03-06T19:55:27.306Z,66.25
2023-03-06T19:58:03.690Z,55.28
2023-03-06T20:00:34.216Z,55.33
2023-03-06T20:03:04.708Z,71.65
2023-03-06T20:05:36.751Z,63.50
2023-03-06T20:08:07.497Z,63.55
2023-03-06T20:10:39.896Z,60.75
2023-03-06T20:13:10.319Z,53.20
2023-03-06T20:15:40.777Z,51.97
2023-03-06T20:18:11.239Z,73.53
2023-03-06T20:20:43.313Z,59.38
2023-03-06T20:23:16.239Z,64.03
2023-03-06T20:25:47.058Z,72.10
2023-03-06T20:28:17.603Z,49.72
2023-03-06T20:30:48.170Z,56.78
2023-03-06T20:33:20.478Z,66.65
2023-03-06T20:35:52.617Z,59.53
2023-03-06T20:38:23.152Z,62.13
2023-03-06T20:40:56.173Z,72.30
2023-03-06T20:43:26.930Z,78.50
2023-03-06T20:46:01.611Z,70.13
2023-03-06T20:48:32.497Z,48.75
2023-03-06T20:51:06.829Z,54.28
2023-03-06T20:53:37.595Z,55.55
2023-03-06T20:56:08.829Z,56.53
2023-03-06T20:58:39.195Z,62.63
2023-03-06T21:01:09.817Z,57.58
2023-03-06T21:03:40.301Z,53.10
2023-03-06T21:06:12.548Z,54.60
2023-03-06T21:08:43.050Z,45.47
2023-03-06T21:11:13.508Z,58.15
2023-03-06T21:13:44.051Z,47.40
2023-03-06T21:16:16.388Z,56.70
2023-03-06T21:18:46.928Z,53.85
2023-03-06T21:21:20.722Z,47.67
2023-03-06T21:23:51.823Z,56.92
2023-03-06T21:26:24.804Z,49.60
2023-03-06T21:28:55.328Z,48.40
2023-03-06T21:31:26.038Z,37.45
2023-03-06T21:33:56.949Z,50.35
2023-03-06T21:36:29.746Z,47.47
2023-03-06T21:39:00.197Z,40.92
2023-03-06T21:41:33.201Z,46.28
2023-03-06T21:44:04.922Z,42.83
2023-03-06T21:46:36.136Z,34.63
2023-03-06T21:49:07.495Z,39.60
2023-03-06T21:51:39.643Z,41.72
2023-03-06T21:54:10.635Z,28.15
2023-03-06T21:56:41.188Z,24.98
2023-03-06T21:59:11.681Z,40.75
2023-03-06T22:01:43.465Z,35.60
2023-03-06T22:04:13.853Z,33.35
2023-03-06T22:06:46.073Z,31.85
2023-03-06T22:09:19.855Z,28.70
2023-03-06T22:11:50.385Z,24.35
2023-03-06T22:14:20.905Z,26.05
2023-03-06T22:16:53.411Z,24.27
2023-03-06T22:19:23.935Z,12.18
2023-03-06T22:21:56.069Z,17.38
2023-03-06T22:24:29.446Z,13.73
2023-03-06T22:27:00.028Z,21.85
2023-03-06T22:29:30.623Z,16.52
2023-03-06T22:32:01.114Z,9.30
2023-03-06T22:34:31.614Z,16.40
2023-03-06T22:37:03.852Z,12.63
2023-03-06T22:39:34.385Z,12.30
2023-03-06T22:42:04.887Z,17.23
2023-03-06T22:44:35.369Z,18.88
2023-03-06T22:47:05.908Z,15.25
2023-03-06T22:49:36.431Z,13.07
2023-03-06T22:52:09.031Z,12.40
2023-03-06T22:54:39.683Z,15.07
2023-03-06T22:57:10.222Z,11.13
2023-03-06T22:59:40.762Z,13.82
2023-03-06T23:02:11.282Z,19.90
2023-03-06T23:04:41.910Z,10.98
2023-03-06T23:07:14.080Z,16.00
2023-03-06T23:09:44.576Z,15.27
2023-03-06T23:12:15.135Z,12.40
2023-03-06T23:14:50.314Z,13.10
2023-03-06T23:17:20.986Z,11.35
2023-03-06T23:19:52.649Z,13.50
2023-03-06T23:22:25.462Z,15.10
2023-03-06T23:24:55.908Z,14.52
2023-03-06T23:27:26.624Z,14.10
2023-03-06T23:29:59.692Z,11.15
2023-03-06T23:32:30.235Z,16.52
2023-03-06T23:35:00.790Z,16.10
2023-03-06T23:37:32.979Z,13.25
2023-03-06T23:40:03.470Z,16.52
2023-03-06T23:42:35.246Z,16.80
2023-03-06T23:45:06.109Z,16.85
2023-03-06T23:47:36.973Z,15.32
2023-03-06T23:50:08.216Z,14.90
2023-03-06T23:52:40.434Z,13.50
2023-03-06T23:55:11.981Z,13.68
2023-03-06T23:57:42.482Z,17.17
